Time;durP1;ratioP1;P1;durP2;ratioP2;P2;SDS_P1;SDS_P2;PMS_P1;PMS_P2;Temp;Humidity;BMP_temperature;BMP_pressure;BME280_temperature;BME280_humidity;BME280_pressure;Samples;Min_cycle;Max_cycle;Signal;HPM_P1;HPM_P2
2023/12/18 00:01:01;;;;;;;11.17;9.07;;;;;;;-1.69;100.00;101145.88;5086172;28;20184;-79
2023/12/18 00:03:29;;;;;;;10.67;9.10;;;;;;;-1.73;100.00;101144.41;5093536;28;20220;-80
2023/12/18 00:05:56;;;;;;;11.23;9.23;;;;;;;-1.74;100.00;101140.09;5094571;28;20274;-79
2023/12/18 00:08:23;;;;;;;13.73;10.20;;;;;;;-1.74;100.00;101142.72;5099475;28;20197;-79
2023/12/18 00:10:50;;;;;;;14.27;9.80;;;;;;;-1.74;100.00;101139.25;5107966;28;20224;-79
2023/12/18 00:13:17;;;;;;;11.43;9.30;;;;;;;-1.77;100.00;101133.25;5090321;28;20196;-79
2023/12/18 00:15:44;;;;;;;13.50;9.77;;;;;;;-1.73;100.00;101135.69;5094040;28;20200;-79
2023/12/18 00:18:11;;;;;;;12.17;9.47;;;;;;;-1.74;100.00;101134.84;5088265;28;20244;-79
2023/12/18 00:20:38;;;;;;;14.67;9.63;;;;;;;-1.75;100.00;101133.16;5062734;28;20216;-80
2023/12/18 00:23:05;;;;;;;13.20;9.60;;;;;;;-1.77;100.00;101136.84;5093111;28;20208;-80
2023/12/18 00:25:32;;;;;;;12.20;9.73;;;;;;;-1.80;100.00;101133.47;5094835;28;20184;-80
2023/12/18 00:27:58;;;;;;;14.30;9.63;;;;;;;-1.80;100.00;101143.97;5094432;28;20224;-80
2023/12/18 00:30:25;;;;;;;11.53;9.47;;;;;;;-1.83;100.00;101140.72;5093456;28;20204;-79
2023/12/18 00:32:52;;;;;;;11.63;9.50;;;;;;;-1.88;100.00;101141.03;5090888;28;20204;-80
2023/12/18 00:35:19;;;;;;;11.03;9.03;;;;;;;-1.93;100.00;101139.66;5059063;28;20192;-80
2023/12/18 00:37:46;;;;;;;11.87;10.40;;;;;;;-1.95;100.00;101138.91;5076121;28;20667;-79
2023/12/18 00:40:13;;;;;;;13.60;10.90;;;;;;;-1.98;100.00;101132.09;5094258;28;20192;-79
2023/12/18 00:42:40;;;;;;;12.57;9.93;;;;;;;-1.95;100.00;101133.66;5093010;28;20200;-79
2023/12/18 00:45:07;;;;;;;13.77;9.93;;;;;;;-2.00;100.00;101133.97;5093080;28;20188;-81
2023/12/18 00:47:34;;;;;;;11.53;9.07;;;;;;;-1.97;100.00;101130.31;5080449;28;20188;-79
2023/12/18 00:50:02;;;;;;;14.43;9.93;;;;;;;-1.95;100.00;101129.25;5077596;28;20184;-79
2023/12/18 00:52:33;;;;;;;12.30;10.30;;;;;;;-1.95;100.00;101129.25;5093315;28;20196;-79
2023/12/18 00:55:00;;;;;;;14.10;11.17;;;;;;;-1.93;100.00;101122.13;5092759;28;20215;-79
2023/12/18 00:57:27;;;;;;;14.23;11.20;;;;;;;-1.92;100.00;101131.69;5076496;28;20196;-79
2023/12/18 00:59:54;;;;;;;14.40;11.07;;;;;;;-1.91;100.00;101125.47;5078078;28;20185;-79
2023/12/18 01:02:21;;;;;;;15.93;12.23;;;;;;;-1.87;100.00;101126.13;5079363;28;20196;-79
2023/12/18 01:04:48;;;;;;;16.23;11.80;;;;;;;-1.86;100.00;101127.78;5074198;28;20204;-79
2023/12/18 01:07:14;;;;;;;16.53;12.47;;;;;;;-1.91;100.00;101120.22;5080930;28;20227;-80
2023/12/18 01:09:42;;;;;;;15.07;11.63;;;;;;;-1.92;100.00;101130.84;5096303;28;20270;-78
2023/12/18 01:12:08;;;;;;;14.97;12.00;;;;;;;-1.95;100.00;101126.63;5081968;28;20318;-79
2023/12/18 01:14:36;;;;;;;16.43;12.30;;;;;;;-1.98;100.00;101136.50;5086965;28;20271;-79
2023/12/18 01:17:02;;;;;;;18.03;12.13;;;;;;;-1.99;100.00;101132.19;5093836;28;20192;-79
2023/12/18 01:19:29;;;;;;;16.63;12.00;;;;;;;-2.01;100.00;101134.94;5095507;28;20184;-80
2023/12/18 01:21:56;;;;;;;14.40;11.87;;;;;;;-2.02;100.00;101130.63;5095364;28;20246;-80
2023/12/18 01:24:23;;;;;;;15.70;11.40;;;;;;;-2.02;100.00;101121.91;5095815;28;20180;-79
2023/12/18 01:26:50;;;;;;;14.80;11.27;;;;;;;-2.02;100.00;101129.78;5094791;28;20184;-80
2023/12/18 01:29:16;;;;;;;13.93;11.00;;;;;;;-2.04;100.00;101129.88;5095953;28;20192;-79
2023/12/18 01:31:43;;;;;;;13.37;9.80;;;;;;;-2.08;100.00;101110.00;5094563;28;20210;-79
2023/12/18 01:34:10;;;;;;;13.20;9.87;;;;;;;-1.97;100.00;101125.91;5094708;28;20204;-79
2023/12/18 01:36:37;;;;;;;14.10;10.33;;;;;;;-1.95;100.00;101134.50;5097394;28;20192;-79
2023/12/18 01:39:04;;;;;;;12.43;10.13;;;;;;;-1.92;100.00;101134.31;5094687;28;20695;-80
2023/12/18 01:41:31;;;;;;;11.50;9.00;;;;;;;-1.95;100.00;101131.03;5076481;28;20189;-79
2023/12/18 01:43:58;;;;;;;11.30;8.40;;;;;;;-1.96;100.00;101127.56;5076040;28;20267;-79
2023/12/18 01:46:25;;;;;;;12.07;8.80;;;;;;;-1.95;100.00;101117.91;5088399;28;20199;-79
2023/12/18 01:48:52;;;;;;;12.27;8.40;;;;;;;-1.93;100.00;101116.03;5095371;28;20224;-80
2023/12/18 01:51:20;;;;;;;9.90;8.47;;;;;;;-1.93;100.00;101116.03;5093294;28;20231;-80
2023/12/18 01:53:49;;;;;;;10.93;7.73;;;;;;;-1.90;100.00;101123.69;5082754;28;20672;-79
2023/12/18 01:56:18;;;;;;;10.27;8.10;;;;;;;-1.91;100.00;101112.31;5067990;28;20287;-80
2023/12/18 01:58:45;;;;;;;11.17;8.20;;;;;;;-1.92;100.00;101109.81;5070773;28;20257;-79
2023/12/18 02:01:12;;;;;;;10.90;8.37;;;;;;;-1.97;100.00;101111.91;5097221;28;20192;-79
2023/12/18 02:03:40;;;;;;;10.63;8.63;;;;;;;-2.01;100.00;101118.34;5064284;28;20188;-80
2023/12/18 02:06:08;;;;;;;11.40;8.20;;;;;;;-2.01;100.00;101118.34;5076688;28;20191;-79
2023/12/18 02:08:35;;;;;;;9.17;7.90;;;;;;;-2.03;100.00;101121.03;5082391;28;20245;-80
2023/12/18 02:11:02;;;;;;;11.30;8.93;;;;;;;-2.02;100.00;101121.91;5089456;28;20208;-79
2023/12/18 02:13:29;;;;;;;10.33;8.57;;;;;;;-2.12;100.00;101124.28;5085741;28;20291;-79
2023/12/18 02:15:57;;;;;;;11.33;8.40;;;;;;;-2.13;100.00;101119.13;5076358;28;20277;-79
2023/12/18 02:18:24;;;;;;;11.03;8.80;;;;;;;-2.16;100.00;101109.69;5097061;28;20181;-79
2023/12/18 02:20:51;;;;;;;13.27;8.27;;;;;;;-2.15;100.00;101115.78;5079799;28;20266;-79
2023/12/18 02:23:18;;;;;;;10.87;8.30;;;;;;;-2.15;100.00;101119.25;5095546;28;20196;-79
2023/12/18 02:25:45;;;;;;;9.67;8.67;;;;;;;-2.14;100.00;101120.91;5073317;28;20242;-79
2023/12/18 02:28:12;;;;;;;10.13;8.00;;;;;;;-2.12;100.00;101119.03;5095053;28;20194;-80
2023/12/18 02:30:39;;;;;;;11.20;8.10;;;;;;;-2.14;100.00;101114.81;5082526;28;20193;-79
2023/12/18 02:33:06;;;;;;;9.83;7.90;;;;;;;-2.18;100.00;101105.47;5067910;28;20214;-80
2023/12/18 02:35:33;;;;;;;9.27;7.77;;;;;;;-2.17;100.00;101110.63;5087714;28;20284;-79
2023/12/18 02:38:00;;;;;;;11.77;8.57;;;;;;;-2.17;100.00;101104.53;5079764;28;20197;-79
2023/12/18 02:40:27;;;;;;;10.60;8.20;;;;;;;-2.22;100.00;101107.47;5080971;28;20192;-79
2023/12/18 02:42:54;;;;;;;10.23;8.27;;;;;;;-2.23;100.00;101114.50;5096956;28;20191;-79
2023/12/18 02:45:21;;;;;;;10.50;7.93;;;;;;;-2.25;100.00;101105.91;5094177;28;20214;-79
2023/12/18 02:47:48;;;;;;;10.60;8.27;;;;;;;-2.27;100.00;101099.06;5075073;28;20227;-80
2023/12/18 02:50:16;;;;;;;11.93;8.80;;;;;;;-2.29;100.00;101107.03;5076994;28;20197;-80
2023/12/18 02:52:43;;;;;;;10.27;8.03;;;;;;;-2.27;100.00;101106.94;5089888;28;20196;-79
2023/12/18 02:55:12;;;;;;;8.73;7.43;;;;;;;-2.31;100.00;101101.03;5089412;28;20226;-80
2023/12/18 02:57:39;;;;;;;10.33;8.20;;;;;;;-2.33;100.00;101095.03;5095506;28;20184;-79
2023/12/18 03:00:08;;;;;;;11.03;8.13;;;;;;;-2.32;100.00;101095.88;5095425;28;20206;-79
2023/12/18 03:02:37;;;;;;;10.97;8.37;;;;;;;-2.32;100.00;101095.88;5097244;28;20192;-79
2023/12/18 03:05:04;;;;;;;10.50;8.53;;;;;;;-2.32;100.00;101096.72;5063338;28;20223;-79
2023/12/18 03:07:31;;;;;;;9.73;8.00;;;;;;;-2.32;100.00;101088.00;5091632;28;20188;-79
2023/12/18 03:09:58;;;;;;;11.43;8.13;;;;;;;-2.35;100.00;101094.31;5096885;28;20246;-79
2023/12/18 03:12:25;;;;;;;11.00;8.90;;;;;;;-2.32;100.00;101093.25;5095351;28;20204;-79
2023/12/18 03:14:52;;;;;;;10.37;9.27;;;;;;;-2.35;100.00;101081.19;5071004;28;20199;-79
2023/12/18 03:17:18;;;;;;;11.70;8.77;;;;;;;-2.37;100.00;101077.81;5095030;28;20183;-79
2023/12/18 03:19:45;;;;;;;10.80;8.73;;;;;;;-2.33;100.00;101086.31;5077973;28;20787;-79
2023/12/18 03:22:13;;;;;;;11.40;8.60;;;;;;;-2.28;100.00;101078.97;5089613;28;20722;-79
2023/12/18 03:24:40;;;;;;;10.47;8.50;;;;;;;-2.23;100.00;101082.16;5091153;28;20219;-79
2023/12/18 03:27:07;;;;;;;10.43;8.43;;;;;;;-2.20;100.00;101083.75;5097206;28;20199;-78
2023/12/18 03:29:34;;;;;;;9.83;8.10;;;;;;;-2.19;100.00;101072.31;5106636;28;20192;-80
2023/12/18 03:32:02;;;;;;;9.67;7.50;;;;;;;-2.17;100.00;101080.91;5094033;28;20243;-79
2023/12/18 03:34:30;;;;;;;8.50;6.90;;;;;;;-2.15;100.00;101074.63;5086129;28;20562;-79
2023/12/18 03:36:57;;;;;;;8.63;7.00;;;;;;;-2.12;100.00;101074.41;5094328;28;20241;-79
2023/12/18 03:39:24;;;;;;;10.73;7.67;;;;;;;-2.14;100.00;101067.56;5077825;28;20196;-79
2023/12/18 03:41:51;;;;;;;8.53;7.03;;;;;;;-2.11;100.00;101073.47;5095750;28;20656;-79
2023/12/18 03:44:18;;;;;;;9.37;8.17;;;;;;;-2.12;100.00;101069.16;5088260;28;20200;-79
2023/12/18 03:46:44;;;;;;;8.90;7.00;;;;;;;-2.15;100.00;101064.13;5041265;28;20196;-79
2023/12/18 03:49:11;;;;;;;8.57;7.10;;;;;;;-2.13;100.00;101064.00;5092336;28;20219;-79
2023/12/18 03:51:39;;;;;;;9.87;7.93;;;;;;;-2.16;100.00;101062.44;5087016;28;20298;-79
2023/12/18 03:54:06;;;;;;;10.67;7.70;;;;;;;-2.13;100.00;101061.38;5090428;28;20184;-79
2023/12/18 03:56:33;;;;;;;8.13;7.33;;;;;;;-2.11;100.00;101070.84;5061061;28;20184;-80
2023/12/18 03:59:00;;;;;;;9.73;7.50;;;;;;;-2.14;100.00;101065.78;5095280;28;20187;-79
2023/12/18 04:01:36;;;;;;;8.47;6.70;;;;;;;-2.11;100.00;101062.13;5095429;28;20196;-79
2023/12/18 04:04:03;;;;;;;7.90;6.57;;;;;;;-2.12;100.00;101060.44;5093999;28;20188;-79
2023/12/18 04:06:30;;;;;;;8.37;6.30;;;;;;;-2.11;100.00;101062.13;5093539;28;20191;-80
2023/12/18 04:08:57;;;;;;;7.90;5.90;;;;;;;-2.09;100.00;101075.97;5067913;28;20200;-79
2023/12/18 04:11:24;;;;;;;8.13;6.50;;;;;;;-2.09;100.00;101068.09;5093343;28;20196;-79
2023/12/18 04:13:51;;;;;;;7.33;6.10;;;;;;;-2.08;100.00;101067.16;5095381;28;20275;-79
2023/12/18 04:16:18;;;;;;;7.87;6.67;;;;;;;-2.08;100.00;101075.03;5073417;28;20216;-79
2023/12/18 04:18:45;;;;;;;6.90;6.00;;;;;;;-2.03;100.00;101072.94;5076501;28;20249;-79
2023/12/18 04:21:12;;;;;;;8.07;6.40;;;;;;;-2.01;100.00;101073.69;5100857;28;20215;-79
2023/12/18 04:23:39;;;;;;;8.40;6.80;;;;;;;-2.03;100.00;101071.16;5095887;28;20184;-80
2023/12/18 04:26:08;;;;;;;7.97;6.57;;;;;;;-2.02;100.00;101070.22;5076921;28;20195;-79
2023/12/18 04:28:35;;;;;;;8.27;6.87;;;;;;;-2.03;100.00;101083.44;5076364;28;20192;-79
2023/12/18 04:31:02;;;;;;;8.17;6.73;;;;;;;-2.10;100.00;101074.31;5093546;28;20185;-79
2023/12/18 04:33:29;;;;;;;9.90;7.13;;;;;;;-2.16;100.00;101070.31;5094275;28;20212;-79
2023/12/18 04:35:56;;;;;;;9.13;6.83;;;;;;;-2.15;100.00;101068.53;5093692;28;20195;-79
2023/12/18 04:38:23;;;;;;;7.60;6.60;;;;;;;-2.22;100.00;101061.03;5095174;28;20177;-79
2023/12/18 04:40:50;;;;;;;8.80;7.20;;;;;;;-2.28;100.00;101064.06;5094160;28;20216;-79
2023/12/18 04:43:16;;;;;;;8.30;6.80;;;;;;;-2.28;100.00;101071.94;5095724;28;20187;-79
2023/12/18 04:45:43;;;;;;;8.53;7.10;;;;;;;-2.30;100.00;101075.63;5097993;28;20278;-79
2023/12/18 04:48:11;;;;;;;8.83;6.83;;;;;;;-2.32;100.00;101074.88;5103829;28;20219;-79
2023/12/18 04:50:38;;;;;;;9.57;7.13;;;;;;;-2.35;100.00;101075.94;5093442;28;20271;-79
2023/12/18 04:53:05;;;;;;;8.87;7.10;;;;;;;-2.36;100.00;101070.78;5093647;28;20241;-79
2023/12/18 04:55:32;;;;;;;10.10;7.23;;;;;;;-2.41;100.00;101065.84;5093819;28;20192;-80
2023/12/18 04:57:58;;;;;;;9.63;7.83;;;;;;;-2.44;100.00;101068.69;5078020;28;20199;-79
2023/12/18 05:00:25;;;;;;;9.53;7.00;;;;;;;-2.47;100.00;101074.13;5095562;28;20272;-80
2023/12/18 05:02:52;;;;;;;10.10;7.40;;;;;;;-2.51;100.00;101077.88;5108395;28;20199;-79
2023/12/18 05:05:19;;;;;;;9.07;7.60;;;;;;;-2.54;100.00;101080.72;5081160;28;20215;-80
2023/12/18 05:07:46;;;;;;;11.97;7.73;;;;;;;-2.59;100.00;101074.09;5102014;28;20192;-79
2023/12/18 05:10:13;;;;;;;9.50;7.67;;;;;;;-2.57;100.00;101075.69;5095189;28;20192;-80
2023/12/18 05:12:40;;;;;;;10.83;8.87;;;;;;;-2.61;100.00;101066.31;5095369;28;20200;-80
2023/12/18 05:15:08;;;;;;;10.23;7.87;;;;;;;-2.64;100.00;101073.56;5062178;28;20192;-80
2023/12/18 05:17:37;;;;;;;9.00;7.10;;;;;;;-2.68;100.00;101072.91;5062109;28;20283;-80
2023/12/18 05:20:08;;;;;;;9.73;7.60;;;;;;;-2.68;100.00;101079.00;5095688;28;20208;-80
2023/12/18 05:22:36;;;;;;;9.87;7.73;;;;;;;-2.71;100.00;101076.56;5093954;28;20239;-80
2023/12/18 05:25:03;;;;;;;10.70;7.90;;;;;;;-2.75;100.00;101082.97;5076848;28;20211;-80
2023/12/18 05:27:30;;;;;;;8.90;7.27;;;;;;;-2.70;100.00;101083.50;5078539;28;20189;-80
2023/12/18 05:29:57;;;;;;;9.80;7.27;;;;;;;-2.71;100.00;101091.50;5078720;28;20192;-80
2023/12/18 05:32:24;;;;;;;9.23;7.50;;;;;;;-2.74;100.00;101076.78;5066249;28;20777;-80
2023/12/18 05:34:51;;;;;;;10.20;7.87;;;;;;;-2.72;100.00;101081.94;5100087;28;20199;-80
2023/12/18 05:37:18;;;;;;;9.40;8.10;;;;;;;-2.73;100.00;101070.59;5082152;28;20196;-80
2023/12/18 05:39:45;;;;;;;10.33;8.77;;;;;;;-2.70;100.00;101080.03;5081478;28;20199;-80
2023/12/18 05:42:18;;;;;;;10.93;9.10;;;;;;;-2.72;100.00;101069.66;5099828;28;20671;-80
2023/12/18 05:44:46;;;;;;;9.73;8.20;;;;;;;-2.74;100.00;101071.53;5099738;28;20653;-80
2023/12/18 05:47:13;;;;;;;8.63;7.73;;;;;;;-2.74;100.00;101068.91;5065768;28;20237;-80
2023/12/18 05:49:39;;;;;;;9.00;7.77;;;;;;;-2.74;100.00;101074.16;5082290;28;20219;-80
2023/12/18 05:52:07;;;;;;;9.40;7.73;;;;;;;-2.79;100.00;101070.13;5065623;28;20216;-80
2023/12/18 05:54:34;;;;;;;8.83;7.10;;;;;;;-2.80;100.00;101069.28;5098038;28;20185;-80
2023/12/18 05:57:01;;;;;;;8.37;7.03;;;;;;;-2.81;100.00;101078.13;5093172;28;20196;-80
2023/12/18 05:59:28;;;;;;;8.67;7.63;;;;;;;-2.82;100.00;101076.44;5102634;28;20196;-80
2023/12/18 06:01:55;;;;;;;8.77;7.27;;;;;;;-2.83;100.00;101074.75;5101397;28;20184;-80
2023/12/18 06:04:23;;;;;;;9.27;7.40;;;;;;;-2.77;100.00;101078.75;5099100;28;20660;-80
2023/12/18 06:06:50;;;;;;;8.80;7.67;;;;;;;-2.78;100.00;101080.53;5081693;28;20200;-80
2023/12/18 06:09:17;;;;;;;10.50;7.40;;;;;;;-2.82;100.00;101075.59;5064876;28;20204;-80
2023/12/18 06:11:44;;;;;;;9.83;7.97;;;;;;;-2.84;100.00;101080.09;5067020;28;20673;-81
2023/12/18 06:14:11;;;;;;;8.40;7.27;;;;;;;-2.87;100.00;101069.81;5073680;28;20203;-80
2023/12/18 06:16:38;;;;;;;9.60;7.17;;;;;;;-2.89;100.00;101075.13;5083168;28;20203;-80
2023/12/18 06:19:05;;;;;;;8.43;7.23;;;;;;;-2.87;100.00;101080.28;5100360;28;20185;-80
2023/12/18 06:21:37;;;;;;;8.80;6.73;;;;;;;-2.91;100.00;101077.03;5082279;28;20226;-81
2023/12/18 06:24:04;;;;;;;10.67;7.43;;;;;;;-2.89;100.00;101077.75;5081430;28;20258;-80
2023/12/18 06:26:31;;;;;;;9.47;7.60;;;;;;;-2.88;100.00;101075.97;5064921;28;20196;-80
2023/12/18 06:28:58;;;;;;;8.80;7.33;;;;;;;-2.87;100.00;101080.28;5080792;28;20192;-80
2023/12/18 06:31:25;;;;;;;8.87;7.60;;;;;;;-2.85;100.00;101075.81;5098269;28;20194;-80
2023/12/18 06:33:52;;;;;;;9.60;6.87;;;;;;;-2.81;100.00;101077.28;5078390;28;20212;-80
2023/12/18 06:36:20;;;;;;;9.50;7.43;;;;;;;-2.81;100.00;101065.00;5062101;28;20196;-80
2023/12/18 06:38:48;;;;;;;11.13;7.53;;;;;;;-2.78;100.00;101070.06;5080211;28;20189;-80
2023/12/18 06:41:15;;;;;;;10.23;8.90;;;;;;;-2.74;100.00;101068.91;5079027;28;20185;-80
2023/12/18 06:43:42;;;;;;;10.33;8.40;;;;;;;-2.74;100.00;101071.53;5082105;28;20326;-80
2023/12/18 06:46:09;;;;;;;10.93;7.90;;;;;;;-2.77;100.00;101061.25;5081663;28;20196;-80
2023/12/18 06:48:41;;;;;;;10.77;7.30;;;;;;;-2.75;100.00;101067.22;5065562;28;20228;-80
2023/12/18 06:51:11;;;;;;;8.70;7.13;;;;;;;-2.68;100.00;101072.91;5064935;28;20200;-80
2023/12/18 06:53:38;;;;;;;6.60;5.87;;;;;;;-2.62;100.00;101064.66;5082003;28;20212;-80
2023/12/18 06:56:06;;;;;;;8.17;5.70;;;;;;;-2.53;100.00;101071.91;5065236;28;20227;-80
2023/12/18 06:58:33;;;;;;;7.17;5.80;;;;;;;-2.48;100.00;101069.84;5080802;28;20262;-80
2023/12/18 07:01:00;;;;;;;6.10;5.43;;;;;;;-2.38;100.00;101070.06;5096387;28;20184;-80
2023/12/18 07:03:27;;;;;;;6.97;5.70;;;;;;;-2.34;100.00;101071.53;5097972;28;20195;-80
2023/12/18 07:05:58;;;;;;;7.50;5.23;;;;;;;-2.29;100.00;101078.13;5098260;28;20530;-80
2023/12/18 07:08:25;;;;;;;7.87;5.80;;;;;;;-2.23;100.00;101075.13;5064015;28;20657;-80
2023/12/18 07:10:55;;;;;;;8.03;5.57;;;;;;;-2.21;100.00;101080.28;5066394;28;20254;-80
2023/12/18 07:13:22;;;;;;;6.63;5.03;;;;;;;-2.15;100.00;101087.75;5100068;28;20260;-79
2023/12/18 07:15:49;;;;;;;6.63;5.83;;;;;;;-2.10;100.00;101084.81;5116967;28;20192;-80
2023/12/18 07:18:17;;;;;;;6.73;5.20;;;;;;;-2.03;100.00;101086.06;5109667;28;20188;-81
2023/12/18 07:20:44;;;;;;;6.37;5.77;;;;;;;-1.97;100.00;101089.13;5079438;28;20223;-80
2023/12/18 07:23:11;;;;;;;7.73;5.57;;;;;;;-1.86;100.00;101086.59;5079072;28;20199;-80
2023/12/18 07:25:38;;;;;;;8.10;5.73;;;;;;;-1.74;100.00;101094.59;5079474;28;20703;-80
2023/12/18 07:28:09;;;;;;;6.37;5.30;;;;;;;-1.62;100.00;101086.69;5063287;28;20192;-80
2023/12/18 07:30:36;;;;;;;11.10;8.00;;;;;;;-1.47;100.00;101097.94;5079697;28;20287;-81
2023/12/18 07:33:06;;;;;;;7.77;5.90;;;;;;;-1.27;100.00;101091.28;5079144;28;20216;-80
2023/12/18 07:35:33;;;;;;;7.70;5.67;;;;;;;-1.19;100.00;101089.78;5096717;28;20180;-80
2023/12/18 07:38:00;;;;;;;5.47;4.47;;;;;;;-1.04;100.00;101087.84;5071480;28;20221;-80
2023/12/18 07:40:27;;;;;;;6.17;4.87;;;;;;;-0.93;100.00;101099.25;5078532;28;20237;-80
2023/12/18 07:42:54;;;;;;;5.57;4.27;;;;;;;-0.76;100.00;101097.22;5096093;28;20180;-80
2023/12/18 07:45:21;;;;;;;7.40;4.17;;;;;;;-0.62;100.00;101103.16;5095064;28;20191;-80
2023/12/18 07:47:48;;;;;;;7.43;4.17;;;;;;;-0.47;100.00;101107.28;5094815;28;20224;-80
2023/12/18 07:50:16;;;;;;;5.03;3.80;;;;;;;-0.31;100.00;101106.13;5095283;28;20552;-80
2023/12/18 07:52:43;;;;;;;4.57;3.73;;;;;;;-0.17;100.00;101101.53;5094565;28;20212;-80
2023/12/18 07:55:11;;;;;;;5.20;4.37;;;;;;;0.00;100.00;101105.53;5094580;28;20192;-80
2023/12/18 07:57:39;;;;;;;4.90;3.93;;;;;;;0.11;100.00;101095.00;5096119;28;20188;-80
2023/12/18 08:00:08;;;;;;;5.23;4.57;;;;;;;0.26;100.00;101093.00;5094703;28;20188;-80
2023/12/18 08:02:38;;;;;;;6.90;4.70;;;;;;;0.29;100.00;101087.47;5094436;28;20755;-81
2023/12/18 08:05:05;;;;;;;5.23;4.43;;;;;;;0.31;100.00;101081.16;5057975;28;20194;-81
2023/12/18 08:07:32;;;;;;;6.73;5.40;;;;;;;0.38;100.00;101092.03;5092792;28;20192;-80
2023/12/18 08:09:59;;;;;;;6.73;5.50;;;;;;;0.42;100.00;101096.94;5077486;28;20283;-80
2023/12/18 08:12:26;;;;;;;6.83;5.50;;;;;;;0.47;100.00;101096.59;5078211;28;20196;-80
2023/12/18 08:14:54;;;;;;;6.57;5.37;;;;;;;0.57;100.00;101094.06;5078551;28;20184;-80
2023/12/18 08:17:21;;;;;;;7.23;5.80;;;;;;;0.62;100.00;101094.56;5078244;28;20184;-80
2023/12/18 08:19:48;;;;;;;7.57;6.10;;;;;;;0.71;100.00;101101.75;5094582;28;20192;-80
2023/12/18 08:22:15;;;;;;;6.57;5.70;;;;;;;0.88;100.00;101096.00;5094489;28;20188;-80
2023/12/18 08:24:43;;;;;;;8.53;6.30;;;;;;;1.11;100.00;101102.06;5061293;28;20203;-80
2023/12/18 08:27:10;;;;;;;7.80;6.03;;;;;;;1.25;100.00;101102.66;5060923;28;20222;-80
2023/12/18 08:29:40;;;;;;;7.90;5.47;;;;;;;1.42;100.00;101097.78;5077865;28;20196;-80
2023/12/18 08:32:07;;;;;;;5.90;4.50;;;;;;;1.57;100.00;101099.16;5074522;28;20307;-80
2023/12/18 08:34:34;;;;;;;6.40;4.47;;;;;;;1.71;100.00;101099.72;5090760;28;20204;-80
2023/12/18 08:37:03;;;;;;;8.93;6.50;;;;;;;1.88;100.00;101097.44;5095816;28;20184;-80
2023/12/18 08:39:30;;;;;;;10.40;8.60;;;;;;;1.99;100.00;101092.13;5077926;28;20188;-80
2023/12/18 08:41:58;;;;;;;9.60;6.63;;;;;;;2.15;100.00;101090.69;5057757;28;20200;-80
2023/12/18 08:44:25;;;;;;;6.00;5.40;;;;;;;2.24;100.00;101083.75;5073721;28;20643;-80
2023/12/18 08:46:52;;;;;;;6.83;5.83;;;;;;;2.31;100.00;101086.72;5073467;28;20200;-80
2023/12/18 08:49:19;;;;;;;7.10;6.10;;;;;;;2.34;100.00;101075.88;5075231;28;20286;-80
2023/12/18 08:51:46;;;;;;;5.60;4.97;;;;;;;2.39;100.00;101069.22;5074373;28;20204;-80
2023/12/18 08:54:13;;;;;;;10.00;6.90;;;;;;;2.53;100.00;101070.69;5073743;28;20330;-80
2023/12/18 08:56:40;;;;;;;7.13;5.83;;;;;;;2.62;100.00;101070.72;5074419;28;20531;-81
2023/12/18 08:59:07;;;;;;;5.80;4.50;;;;;;;2.69;100.00;101052.50;5074148;28;20653;-80
2023/12/18 09:01:39;;;;;;;7.30;4.90;;;;;;;2.80;100.00;101055.03;5073790;28;20185;-80
2023/12/18 09:04:06;;;;;;;10.20;7.07;;;;;;;2.86;100.00;101062.44;5073874;28;20227;-80
2023/12/18 09:06:37;;;;;;;6.53;5.00;;;;;;;2.91;100.00;101057.59;5060482;28;20185;-80
2023/12/18 09:09:04;;;;;;;7.47;4.97;;;;;;;2.97;100.00;101059.69;5078270;28;20685;-80
2023/12/18 09:11:33;;;;;;;6.07;4.57;;;;;;;3.07;100.00;101051.78;5061771;28;20196;-79
2023/12/18 09:14:03;;;;;;;4.37;3.77;;;;;;;3.19;100.00;101052.47;5061162;28;20235;-80
2023/12/18 09:16:32;;;;;;;6.30;3.70;;;;;;;3.26;100.00;101048.31;5093384;28;20232;-80
2023/12/18 09:19:02;;;;;;;4.57;3.97;;;;;;;3.35;100.00;101043.03;5077292;28;20195;-80
2023/12/18 09:21:29;;;;;;;4.17;3.30;;;;;;;3.43;100.00;101043.16;5077579;28;20204;-80
2023/12/18 09:23:56;;;;;;;3.40;3.10;;;;;;;3.55;100.00;101043.84;5077491;28;20185;-80
2023/12/18 09:26:23;;;;;;;3.53;3.03;;;;;;;3.66;100.00;101038.41;5077290;28;20250;-80
2023/12/18 09:28:50;;;;;;;4.83;3.53;;;;;;;3.75;100.00;101034.91;5077445;28;20684;-79
2023/12/18 09:31:18;;;;;;;6.13;4.47;;;;;;;3.89;100.00;101038.91;5077591;28;20192;-80
2023/12/18 09:33:45;;;;;;;5.60;4.20;;;;;;;3.98;100.00;101032.75;5061972;28;20286;-80
2023/12/18 09:36:12;;;;;;;4.70;3.90;;;;;;;4.11;100.00;101027.97;5083487;28;20204;-79
2023/12/18 09:38:40;;;;;;;3.73;3.40;;;;;;;4.24;100.00;101023.22;5087319;28;20649;-81
2023/12/18 09:41:07;;;;;;;4.57;4.00;;;;;;;4.37;100.00;101023.72;5103582;28;20200;-79
2023/12/18 09:43:35;;;;;;;3.97;3.47;;;;;;;4.50;100.00;101015.41;5103312;28;20193;-79
2023/12/18 09:46:02;;;;;;;4.40;3.70;;;;;;;4.66;100.00;101014.78;5074342;28;20230;-79
2023/12/18 09:48:30;;;;;;;4.57;3.20;;;;;;;4.79;100.00;101009.94;5081172;28;20239;-79
2023/12/18 09:50:57;;;;;;;5.20;4.03;;;;;;;4.93;100.00;101006.78;5098858;28;20200;-81
2023/12/18 09:53:24;;;;;;;5.13;3.07;;;;;;;5.06;100.00;101006.41;5079122;28;20266;-80
2023/12/18 09:55:54;;;;;;;3.60;3.00;;;;;;;5.21;100.00;101007.56;5084197;28;20227;-80
2023/12/18 09:58:23;;;;;;;4.20;2.90;;;;;;;5.34;100.00;101005.34;5109370;28;20196;-80
2023/12/18 10:00:53;;;;;;;2.77;2.47;;;;;;;5.50;100.00;101002.84;5104483;28;20241;-81
2023/12/18 10:03:20;;;;;;;3.43;2.57;;;;;;;5.63;100.00;101005.94;5097711;28;20188;-81
2023/12/18 10:05:47;;;;;;;2.40;2.20;;;;;;;5.74;100.00;100997.69;5073351;28;20262;-81
2023/12/18 10:08:15;;;;;;;3.30;2.60;;;;;;;5.87;100.00;100997.34;5084932;28;20238;-79
2023/12/18 10:10:43;;;;;;;3.27;2.80;;;;;;;5.98;100.00;100994.41;5098658;28;20265;-79
2023/12/18 10:13:14;;;;;;;3.87;2.63;;;;;;;6.11;100.00;100994.81;5097695;28;20219;-79
2023/12/18 10:15:42;;;;;;;2.83;2.40;;;;;;;6.23;100.00;100982.09;5096999;28;20184;-79
2023/12/18 10:18:10;;;;;;;3.93;2.80;;;;;;;6.40;100.00;100978.50;5080441;28;20264;-79
2023/12/18 10:20:38;;;;;;;3.37;3.00;;;;;;;6.63;100.00;100978.75;5064200;28;20307;-79
2023/12/18 10:23:07;;;;;;;3.50;2.70;;;;;;;6.72;100.00;100960.97;5098663;28;20198;-79
2023/12/18 10:25:35;;;;;;;3.53;2.43;;;;;;;6.82;100.00;100962.50;5079838;28;20196;-79
2023/12/18 10:28:03;;;;;;;3.73;2.70;;;;;;;6.90;100.00;100956.38;5066825;28;20207;-79
2023/12/18 10:30:30;;;;;;;3.07;2.77;;;;;;;7.01;100.00;100959.53;5108514;28;20191;-79
2023/12/18 10:32:59;;;;;;;4.77;3.30;;;;;;;7.20;100.00;100950.38;5096726;28;20188;-79
2023/12/18 10:35:27;;;;;;;4.20;2.70;;;;;;;7.28;100.00;100953.06;5083196;28;20258;-80
2023/12/18 10:37:55;;;;;;;4.83;2.93;;;;;;;7.40;100.00;100950.91;5102763;28;20183;-80
2023/12/18 10:40:23;;;;;;;3.53;3.23;;;;;;;7.49;100.00;100945.41;5103786;28;20183;-80
2023/12/18 10:43:18;;;;;;;3.87;2.57;;;;;;;7.71;100.00;100933.19;5096979;28;20238;-80
2023/12/18 10:45:46;;;;;;;2.83;2.17;;;;;;;7.81;100.00;100933.00;5081465;28;20288;-79
2023/12/18 10:48:14;;;;;;;3.17;2.13;;;;;;;7.90;100.00;100929.31;5095319;28;20220;-79
2023/12/18 10:50:43;;;;;;;2.00;1.63;;;;;;;8.00;100.00;100929.13;5078904;28;20226;-81
2023/12/18 10:53:13;;;;;;;2.87;2.47;;;;;;;8.11;100.00;100926.94;5073283;28;20195;-79
2023/12/18 10:55:41;;;;;;;2.70;2.43;;;;;;;8.22;100.00;100928.38;5063074;28;20201;-81
2023/12/18 10:58:08;;;;;;;3.20;2.80;;;;;;;8.32;100.00;100931.72;5096122;28;20207;-79
2023/12/18 11:00:39;;;;;;;3.70;2.97;;;;;;;8.45;100.00;100942.66;5116927;28;20206;-81
2023/12/18 11:03:07;;;;;;;5.63;4.40;;;;;;;8.54;100.00;100943.47;5100753;28;20187;-81
2023/12/18 11:05:35;;;;;;;5.40;4.87;;;;;;;8.63;100.00;100931.75;5099525;28;20226;-81
2023/12/18 11:08:03;;;;;;;3.73;2.77;;;;;;;8.73;100.00;100933.16;5080379;28;20660;-81
2023/12/18 11:10:30;;;;;;;4.13;2.50;;;;;;;8.82;100.00;100931.28;5096988;28;20188;-81
2023/12/18 11:13:12;;;;;;;3.20;2.57;;;;;;;8.89;100.00;100923.38;5083540;28;20198;-80
2023/12/18 11:16:17;;;;;;;2.83;2.53;;;;;;;8.95;100.00;100920.00;5117243;28;20716;-81
2023/12/18 11:18:58;;;;;;;4.23;3.70;;;;;;;8.99;100.00;100913.31;5101562;28;20253;-81